Time;durP1;ratioP1;P1;durP2;ratioP2;P2;SDS_P1;SDS_P2;PMS_P1;PMS_P2;Temp;Humidity;BMP_temperature;BMP_pressure;BME280_temperature;BME280_humidity;BME280_pressure;Samples;Min_cycle;Max_cycle;Signal;HPM_P1;HPM_P2
2023/09/10 00:00:39;;;;;;;1.10;0.68;;;16.50;44.90;;;;;;5072377;28;20028;-78
2023/09/10 00:03:06;;;;;;;2.15;1.15;;;16.30;44.60;;;;;;5072369;28;20511;-77
2023/09/10 00:05:34;;;;;;;2.50;0.90;;;16.30;45.30;;;;;;5072649;28;20052;-78
2023/09/10 00:08:01;;;;;;;2.55;0.90;;;16.30;44.50;;;;;;5072974;28;20387;-79
2023/09/10 00:10:29;;;;;;;1.88;0.77;;;16.30;45.10;;;;;;5071067;28;20130;-78
2023/09/10 00:12:56;;;;;;;2.90;1.08;;;16.30;45.30;;;;;;5070815;28;20029;-77
2023/09/10 00:15:24;;;;;;;3.75;1.30;;;16.40;45.40;;;;;;5072396;28;20057;-77
2023/09/10 00:17:52;;;;;;;4.38;1.00;;;16.30;45.20;;;;;;5072249;28;20518;-77
2023/09/10 00:20:19;;;;;;;6.03;1.30;;;16.60;45.10;;;;;;5072297;28;20029;-76
2023/09/10 00:22:47;;;;;;;4.03;0.80;;;17.00;43.80;;;;;;5068238;28;20037;-77
2023/09/10 00:25:15;;;;;;;4.78;0.98;;;17.20;43.40;;;;;;5058791;28;20051;-78
2023/09/10 00:27:42;;;;;;;6.38;1.00;;;17.30;43.10;;;;;;5060171;28;20483;-78
2023/09/10 00:30:10;;;;;;;3.80;1.10;;;17.40;42.80;;;;;;5071897;28;20024;-76
2023/09/10 00:32:37;;;;;;;2.47;1.10;;;17.20;42.50;;;;;;5070733;28;20036;-77
2023/09/10 00:35:05;;;;;;;3.13;1.08;;;17.30;43.40;;;;;;5061822;28;20031;-77
2023/09/10 00:37:32;;;;;;;3.00;1.08;;;17.40;43.10;;;;;;5068282;28;20039;-77
2023/09/10 00:40:00;;;;;;;2.50;1.08;;;17.60;42.10;;;;;;5063884;28;20422;-78
2023/09/10 00:42:27;;;;;;;4.25;1.10;;;17.70;42.50;;;;;;5059696;28;20025;-77
2023/09/10 00:44:55;;;;;;;5.85;1.35;;;17.80;41.80;;;;;;5060484;28;20025;-77
2023/09/10 00:47:23;;;;;;;2.83;1.10;;;18.10;41.60;;;;;;5052791;28;20031;-76
2023/09/10 00:49:50;;;;;;;3.10;0.90;;;18.30;40.80;;;;;;5068803;28;20039;-77
2023/09/10 00:52:18;;;;;;;5.30;1.52;;;18.40;40.40;;;;;;5070462;28;20028;-76
2023/09/10 00:54:45;;;;;;;4.28;1.10;;;18.70;40.90;;;;;;5071228;28;20416;-80
2023/09/10 00:57:13;;;;;;;6.65;1.23;;;19.00;39.10;;;;;;5060100;28;20462;-77
2023/09/10 00:59:41;;;;;;;2.75;1.15;;;19.20;39.00;;;;;;5051817;28;20036;-76
2023/09/10 01:02:14;;;;;;;2.80;0.90;;;19.50;38.50;;;;;;5050252;28;20029;-77
2023/09/10 01:04:41;;;;;;;4.32;1.02;;;19.70;37.50;;;;;;5050428;28;20021;-76
2023/09/10 01:07:09;;;;;;;2.20;0.93;;;19.80;37.50;;;;;;5053317;28;20094;-77
2023/09/10 01:09:36;;;;;;;4.72;1.30;;;19.70;36.70;;;;;;5053573;28;20468;-76
2023/09/10 01:12:36;;;;;;;4.50;1.00;;;19.60;37.00;;;;;;5053262;28;20063;-77
2023/09/10 01:15:44;;;;;;;1.92;0.90;;;19.30;36.80;;;;;;5036269;28;20581;-76
2023/09/10 01:18:36;;;;;;;4.15;1.17;;;19.20;36.80;;;;;;5055482;28;20136;-77
2023/09/10 01:21:33;;;;;;;2.83;1.05;;;19.10;37.10;;;;;;5055188;28;20475;-77
2023/09/10 01:24:18;;;;;;;3.42;1.10;;;19.20;36.60;;;;;;5053991;28;20033;-76
2023/09/10 01:26:55;;;;;;;2.15;0.70;;;19.20;37.90;;;;;;5055298;28;20491;-77
2023/09/10 01:29:23;;;;;;;3.65;1.00;;;19.30;36.70;;;;;;5055172;28;20083;-76
2023/09/10 01:31:58;;;;;;;3.67;1.10;;;19.30;37.30;;;;;;5053915;28;20064;-78
2023/09/10 01:34:31;;;;;;;2.47;0.73;;;19.30;36.60;;;;;;5070553;28;20789;-77
2023/09/10 01:37:19;;;;;;;3.83;0.90;;;19.10;35.70;;;;;;5055014;28;20044;-78
2023/09/10 01:39:51;;;;;;;2.70;0.90;;;18.80;36.00;;;;;;5055068;28;20108;-77
2023/09/10 01:42:20;;;;;;;2.40;0.80;;;18.80;37.60;;;;;;5054928;28;20040;-76
2023/09/10 01:44:48;;;;;;;5.20;1.33;;;18.90;38.50;;;;;;5054787;28;20028;-77
2023/09/10 01:47:16;;;;;;;4.68;1.30;;;19.00;38.50;;;;;;5054877;28;20107;-81
2023/09/10 01:49:44;;;;;;;2.47;0.90;;;19.00;37.20;;;;;;5055022;28;20036;-84
2023/09/10 01:52:12;;;;;;;3.53;1.08;;;18.90;37.30;;;;;;5053934;28;20365;-86
2023/09/10 01:54:41;;;;;;;4.75;1.17;;;19.00;35.40;;;;;;5055103;28;20546;-89
2023/09/10 01:57:08;;;;;;;1.80;0.82;;;18.80;35.50;;;;;;5055029;28;20033;-85
2023/09/10 01:59:36;;;;;;;3.03;0.85;;;18.70;35.60;;;;;;5055078;28;20396;-84
2023/09/10 02:02:04;;;;;;;2.47;0.75;;;18.70;36.90;;;;;;5055061;28;20021;-79
2023/09/10 02:04:32;;;;;;;1.83;1.05;;;18.80;36.10;;;;;;5054708;28;20025;-86
2023/09/10 02:06:59;;;;;;;1.90;0.70;;;19.00;36.00;;;;;;5054751;28;20392;-84
2023/09/10 02:09:27;;;;;;;2.75;1.00;;;19.00;34.70;;;;;;5054751;28;20021;-83
2023/09/10 02:11:54;;;;;;;2.22;0.68;;;18.80;34.40;;;;;;5054654;28;20479;-85
2023/09/10 02:14:30;;;;;;;1.80;0.70;;;18.90;35.00;;;;;;5054536;28;20035;-79
2023/09/10 02:17:00;;;;;;;1.73;0.70;;;19.00;35.20;;;;;;5056147;28;20033;-79
2023/09/10 02:19:28;;;;;;;2.90;0.95;;;19.00;35.00;;;;;;5054647;28;20035;-83
2023/09/10 02:21:57;;;;;;;2.88;0.90;;;19.10;34.80;;;;;;5054435;28;20021;-84
2023/09/10 02:24:25;;;;;;;2.03;0.85;;;19.20;35.80;;;;;;5054360;28;20047;-77
2023/09/10 02:26:53;;;;;;;5.97;1.17;;;19.30;36.00;;;;;;5053635;28;20021;-78
2023/09/10 02:29:20;;;;;;;2.75;1.17;;;19.20;35.70;;;;;;5069621;28;20559;-77
2023/09/10 02:31:48;;;;;;;4.10;1.48;;;19.20;35.60;;;;;;5062003;28;20029;-81
2023/09/10 02:34:15;;;;;;;3.20;1.00;;;19.20;35.70;;;;;;5095520;28;20020;-80
2023/09/10 02:36:43;;;;;;;2.95;0.95;;;19.20;33.80;;;;;;5094972;28;20367;-80
2023/09/10 02:39:10;;;;;;;1.30;0.75;;;19.10;33.20;;;;;;5095281;28;20497;-79
2023/09/10 02:41:39;;;;;;;2.85;1.20;;;19.10;33.60;;;;;;5072690;28;20037;-88
2023/09/10 02:44:07;;;;;;;2.08;0.95;;;19.30;32.90;;;;;;5072462;28;20047;-81
2023/09/10 02:46:34;;;;;;;2.17;0.75;;;19.20;32.70;;;;;;5065948;28;20063;-78
2023/09/10 02:49:01;;;;;;;2.50;1.00;;;19.20;33.00;;;;;;5083321;28;20020;-79
2023/09/10 02:51:29;;;;;;;2.95;0.70;;;19.20;32.80;;;;;;5067023;28;20024;-80
2023/09/10 02:53:56;;;;;;;2.35;0.90;;;19.20;32.40;;;;;;5072265;28;20016;-77
2023/09/10 02:56:24;;;;;;;2.15;0.80;;;19.10;32.90;;;;;;5065342;28;20032;-79
2023/09/10 02:58:51;;;;;;;3.83;1.40;;;19.20;34.00;;;;;;5068534;28;20084;-79
2023/09/10 03:01:18;;;;;;;2.50;1.00;;;19.20;33.80;;;;;;5053452;28;20017;-79
2023/09/10 03:03:46;;;;;;;1.52;0.80;;;19.40;33.80;;;;;;5056681;28;20024;-80
2023/09/10 03:06:13;;;;;;;1.67;0.85;;;19.60;34.00;;;;;;5072170;28;20017;-79
2023/09/10 03:08:42;;;;;;;2.55;1.00;;;19.70;35.40;;;;;;5073474;28;20028;-78
2023/09/10 03:11:10;;;;;;;3.33;1.02;;;19.70;35.90;;;;;;5057767;28;20021;-79
2023/09/10 03:13:37;;;;;;;4.25;1.20;;;19.80;37.30;;;;;;5067989;28;20032;-79
2023/09/10 03:16:05;;;;;;;2.78;1.40;;;19.90;38.20;;;;;;5068515;28;20129;-77
2023/09/10 03:18:32;;;;;;;3.67;1.17;;;19.90;38.30;;;;;;5072643;28;20391;-78
2023/09/10 03:21:03;;;;;;;5.68;1.38;;;19.90;38.60;;;;;;5072588;28;20074;-78
2023/09/10 03:23:30;;;;;;;3.15;1.10;;;19.90;39.00;;;;;;5065885;28;20059;-80
2023/09/10 03:25:58;;;;;;;4.60;1.40;;;20.00;39.60;;;;;;5063646;28;20032;-79
2023/09/10 03:28:25;;;;;;;2.42;1.00;;;20.00;39.70;;;;;;5070905;28;20049;-78
2023/09/10 03:30:57;;;;;;;4.25;1.40;;;20.00;39.30;;;;;;5069703;28;20078;-78
2023/09/10 03:33:25;;;;;;;6.25;1.50;;;19.80;39.60;;;;;;5060064;28;20127;-78
2023/09/10 03:35:52;;;;;;;5.53;1.27;;;19.70;39.80;;;;;;5055524;28;20043;-79
2023/09/10 03:38:19;;;;;;;5.00;1.50;;;19.60;40.20;;;;;;5068873;28;20115;-78
2023/09/10 03:40:47;;;;;;;2.42;1.13;;;19.50;40.60;;;;;;5063571;28;20458;-78
2023/09/10 03:43:16;;;;;;;3.33;1.33;;;19.40;41.00;;;;;;5052782;28;20454;-79
2023/09/10 03:45:43;;;;;;;4.28;1.17;;;19.30;41.50;;;;;;5058480;28;20101;-78
2023/09/10 03:48:11;;;;;;;2.85;1.02;;;19.20;41.80;;;;;;5072843;28;20031;-80
2023/09/10 03:50:39;;;;;;;2.78;1.50;;;19.20;42.10;;;;;;5066912;28;20021;-79
2023/09/10 03:53:07;;;;;;;3.15;1.35;;;19.10;42.20;;;;;;5056527;28;20379;-79
2023/09/10 03:55:34;;;;;;;3.53;1.30;;;19.20;42.10;;;;;;5053768;28;20465;-78
2023/09/10 03:58:02;;;;;;;3.90;1.30;;;19.20;42.50;;;;;;5053276;28;20032;-79
2023/09/10 04:00:29;;;;;;;3.40;1.10;;;19.30;42.30;;;;;;5052963;28;20025;-79
2023/09/10 04:02:57;;;;;;;3.45;1.15;;;19.30;42.00;;;;;;5073476;28;20111;-78
2023/09/10 04:05:24;;;;;;;2.83;1.38;;;19.50;42.00;;;;;;5073064;28;20096;-78
2023/09/10 04:07:51;;;;;;;4.88;1.30;;;19.60;42.00;;;;;;5070636;28;20028;-80
2023/09/10 04:10:20;;;;;;;2.55;1.38;;;19.70;41.60;;;;;;5060947;28;20456;-79
2023/09/10 04:12:50;;;;;;;5.13;1.40;;;19.70;41.00;;;;;;5062018;28;20467;-81
2023/09/10 04:15:18;;;;;;;2.97;1.17;;;19.70;41.00;;;;;;5070185;28;20024;-78
2023/09/10 04:17:46;;;;;;;6.32;1.70;;;19.70;41.00;;;;;;5075930;28;20037;-78
2023/09/10 04:20:13;;;;;;;2.70;1.10;;;19.70;40.10;;;;;;5068941;28;20391;-79
2023/09/10 04:22:41;;;;;;;5.10;1.20;;;19.70;40.40;;;;;;5052297;28;20539;-78
2023/09/10 04:25:08;;;;;;;3.13;1.00;;;19.70;40.50;;;;;;5052277;28;20108;-78
2023/09/10 04:27:36;;;;;;;5.15;0.88;;;19.70;40.80;;;;;;5055645;28;20500;-81
2023/09/10 04:30:04;;;;;;;4.22;1.98;;;19.70;41.10;;;;;;5066696;28;20040;-80
2023/09/10 04:32:31;;;;;;;5.80;1.30;;;19.70;41.20;;;;;;5064110;28;20060;-80
2023/09/10 04:34:59;;;;;;;2.65;0.95;;;19.70;41.30;;;;;;5064782;28;20044;-78
2023/09/10 04:37:26;;;;;;;3.42;1.20;;;19.70;41.70;;;;;;5070606;28;20044;-80
2023/09/10 04:39:54;;;;;;;4.15;1.10;;;19.70;41.80;;;;;;5075743;28;20039;-82
2023/09/10 04:42:21;;;;;;;2.95;1.00;;;19.60;41.90;;;;;;5056115;28;20456;-85
2023/09/10 04:44:49;;;;;;;2.67;1.00;;;19.50;41.90;;;;;;5071161;28;20047;-81
2023/09/10 04:47:16;;;;;;;3.05;1.00;;;19.40;41.70;;;;;;5061346;28;20430;-79
2023/09/10 04:49:44;;;;;;;2.40;0.70;;;19.40;41.80;;;;;;5067917;28;20036;-83
2023/09/10 04:52:11;;;;;;;2.42;1.10;;;19.40;42.50;;;;;;5072093;28;20545;-81
2023/09/10 04:54:38;;;;;;;1.73;0.88;;;19.50;42.80;;;;;;5059325;28;20078;-82
2023/09/10 04:57:06;;;;;;;4.15;1.08;;;19.60;42.70;;;;;;5074612;28;20025;-81
2023/09/10 04:59:33;;;;;;;2.15;0.85;;;19.60;43.00;;;;;;5073301;28;20475;-79
2023/09/10 05:02:01;;;;;;;2.40;0.90;;;19.70;43.10;;;;;;5075922;28;20021;-83
2023/09/10 05:04:29;;;;;;;2.78;1.00;;;19.70;43.20;;;;;;5075768;28;20029;-85
2023/09/10 05:06:56;;;;;;;4.18;0.70;;;19.70;42.90;;;;;;5074565;28;20017;-79
2023/09/10 05:09:23;;;;;;;2.55;1.30;;;19.70;43.10;;;;;;5075667;28;20029;-87
2023/09/10 05:11:51;;;;;;;3.58;0.98;;;19.70;42.70;;;;;;5070603;28;20054;-80
2023/09/10 05:14:18;;;;;;;3.13;0.95;;;19.80;42.90;;;;;;5073340;28;20476;-81
2023/09/10 05:16:45;;;;;;;1.60;0.80;;;19.80;43.10;;;;;;5089730;28;20039;-80
2023/09/10 05:19:13;;;;;;;2.35;1.27;;;19.90;43.20;;;;;;5068222;28;20021;-79
2023/09/10 05:21:40;;;;;;;4.07;0.90;;;19.90;43.10;;;;;;5054328;28;20499;-80
2023/09/10 05:24:08;;;;;;;3.42;0.98;;;19.90;43.00;;;;;;5055374;28;20065;-83
2023/09/10 05:26:35;;;;;;;2.90;1.05;;;19.80;42.90;;;;;;5056690;28;20040;-82
2023/09/10 05:29:03;;;;;;;4.68;0.90;;;19.80;43.40;;;;;;5072850;28;20044;-87
2023/09/10 05:31:30;;;;;;;3.53;1.02;;;19.80;43.80;;;;;;5074565;28;20356;-79
2023/09/10 05:33:58;;;;;;;1.85;0.80;;;19.70;43.60;;;;;;5070813;28;20372;-84
2023/09/10 05:36:26;;;;;;;4.57;0.90;;;19.70;43.30;;;;;;5071789;28;20032;-82
2023/09/10 05:38:55;;;;;;;3.47;1.10;;;19.70;43.50;;;;;;5070453;28;20043;-81
2023/09/10 05:41:23;;;;;;;2.55;0.82;;;19.60;43.70;;;;;;5072673;28;20023;-79
2023/09/10 05:43:50;;;;;;;3.75;1.27;;;19.50;43.80;;;;;;5072801;28;20053;-87
2023/09/10 05:46:17;;;;;;;4.38;0.90;;;19.50;43.90;;;;;;5068789;28;20137;-81
2023/09/10 05:48:45;;;;;;;5.70;0.90;;;19.40;43.90;;;;;;5072815;28;20025;-80
2023/09/10 05:51:12;;;;;;;3.17;1.10;;;19.30;44.30;;;;;;5071237;28;20070;-81
2023/09/10 05:53:42;;;;;;;4.07;0.80;;;19.20;44.40;;;;;;5074105;28;20609;-88
2023/09/10 05:56:13;;;;;;;1.95;0.85;;;19.10;44.40;;;;;;5071308;28;20046;-80
2023/09/10 05:58:47;;;;;;;3.05;0.90;;;19.00;44.70;;;;;;5071067;28;20255;-84
2023/09/10 06:01:14;;;;;;;2.22;0.93;;;19.00;45.00;;;;;;5072183;28;20117;-79
2023/09/10 06:03:42;;;;;;;2.83;1.00;;;18.90;45.20;;;;;;5070490;28;20143;-79
2023/09/10 06:06:09;;;;;;;3.88;1.35;;;18.90;45.70;;;;;;5070266;28;20055;-77
2023/09/10 06:08:38;;;;;;;3.42;1.15;;;18.80;45.40;;;;;;5069805;28;20023;-81
2023/09/10 06:11:05;;;;;;;2.10;0.80;;;18.80;45.40;;;;;;5070126;28;20017;-79
2023/09/10 06:13:35;;;;;;;1.45;0.80;;;18.80;45.80;;;;;;5072712;28;20545;-77
2023/09/10 06:16:06;;;;;;;3.63;0.80;;;18.70;46.20;;;;;;5072692;28;20040;-77
2023/09/10 06:18:33;;;;;;;1.55;0.82;;;18.70;46.40;;;;;;5071194;28;20055;-79
2023/09/10 06:21:00;;;;;;;1.63;0.85;;;18.60;46.70;;;;;;5069940;28;20032;-78
2023/09/10 06:23:31;;;;;;;2.92;1.10;;;18.60;46.50;;;;;;5074069;28;20033;-78
2023/09/10 06:25:59;;;;;;;3.50;0.77;;;18.40;46.40;;;;;;5068297;28;20029;-78
2023/09/10 06:28:27;;;;;;;2.70;0.90;;;18.40;47.00;;;;;;5076238;28;20246;-81
2023/09/10 06:30:54;;;;;;;3.40;0.90;;;18.30;47.40;;;;;;5071405;28;20471;-79
2023/09/10 06:33:22;;;;;;;3.17;1.15;;;18.20;47.60;;;;;;5056452;28;20432;-79
2023/09/10 06:35:49;;;;;;;1.15;0.82;;;18.20;47.70;;;;;;5056566;28;20025;-80
2023/09/10 06:38:17;;;;;;;2.05;0.80;;;18.20;48.10;;;;;;5071667;28;20036;-78
2023/09/10 06:40:44;;;;;;;1.80;1.00;;;18.20;48.00;;;;;;5082057;28;20382;-77
2023/09/10 06:43:13;;;;;;;2.85;1.17;;;18.00;48.40;;;;;;5083989;28;20028;-77
2023/09/10 06:45:41;;;;;;;2.28;0.82;;;17.90;48.60;;;;;;5078347;28;20040;-76
2023/09/10 06:48:09;;;;;;;2.92;0.88;;;17.90;49.00;;;;;;5060910;28;20029;-77
2023/09/10 06:50:36;;;;;;;2.72;0.82;;;17.80;49.30;;;;;;5067709;28;20023;-77
2023/09/10 06:53:04;;;;;;;1.27;0.77;;;17.80;49.50;;;;;;5079054;28;20031;-77
2023/09/10 06:55:33;;;;;;;2.33;0.88;;;17.70;49.40;;;;;;5062134;28;20021;-77
2023/09/10 06:58:00;;;;;;;2.17;0.95;;;17.70;49.40;;;;;;5059986;28;20064;-77
2023/09/10 07:00:28;;;;;;;2.30;0.88;;;17.70;49.70;;;;;;5068336;28;20044;-78
2023/09/10 07:02:57;;;;;;;2.63;1.00;;;17.70;49.80;;;;;;5049530;28;20040;-77
2023/09/10 07:05:25;;;;;;;0.95;0.65;;;17.50;49.80;;;;;;5066762;28;20024;-78
2023/09/10 07:07:53;;;;;;;3.25;1.00;;;17.40;50.00;;;;;;5066479;28;20020;-79
2023/09/10 07:10:21;;;;;;;2.40;1.02;;;17.40;50.20;;;;;;5066529;28;20025;-78
2023/09/10 07:12:48;;;;;;;3.17;0.95;;;17.30;50.20;;;;;;5065687;28;20024;-78
2023/09/10 07:15:15;;;;;;;3.72;1.25;;;17.30;50.50;;;;;;5063800;28;20364;-78
2023/09/10 07:17:43;;;;;;;2.40;0.98;;;17.20;50.50;;;;;;5067244;28;20452;-77
2023/09/10 07:20:11;;;;;;;1.80;0.88;;;17.20;50.80;;;;;;5064880;28;20059;-78
2023/09/10 07:22:38;;;;;;;3.03;1.13;;;17.20;50.80;;;;;;5067803;28;20029;-79
2023/09/10 07:25:06;;;;;;;2.08;0.98;;;17.20;50.90;;;;;;5064776;28;20039;-79
2023/09/10 07:27:36;;;;;;;2.33;0.80;;;17.10;51.00;;;;;;5065916;28;20495;-79
2023/09/10 07:30:04;;;;;;;2.40;1.08;;;17.10;51.40;;;;;;5067107;28;20063;-78
2023/09/10 07:32:32;;;;;;;3.75;1.10;;;17.00;51.40;;;;;;5066551;28;20029;-79
2023/09/10 07:34:59;;;;;;;4.57;1.10;;;17.00;51.40;;;;;;5065605;28;20059;-78
2023/09/10 07:37:27;;;;;;;3.90;1.05;;;16.90;51.40;;;;;;5068295;28;20064;-77
2023/09/10 07:39:54;;;;;;;2.47;0.75;;;16.90;51.40;;;;;;5069140;28;20032;-79
2023/09/10 07:42:22;;;;;;;1.42;0.90;;;16.90;52.10;;;;;;5067724;28;20422;-79
2023/09/10 07:44:49;;;;;;;6.43;1.40;;;16.80;52.00;;;;;;5065208;28;20039;-81
2023/09/10 07:47:17;;;;;;;2.78;0.98;;;16.70;51.90;;;;;;5065433;28;20033;-78
2023/09/10 07:49:45;;;;;;;3.88;1.05;;;16.70;52.50;;;;;;5068101;28;20048;-79
2023/09/10 07:52:12;;;;;;;3.67;0.80;;;16.70;52.30;;;;;;5067058;28;20456;-79
2023/09/10 07:54:40;;;;;;;2.03;1.00;;;16.70;52.20;;;;;;5062809;28;20496;-78
2023/09/10 07:57:09;;;;;;;3.85;1.40;;;16.60;52.40;;;;;;5066292;28;20082;-77
2023/09/10 07:59:36;;;;;;;2.75;0.80;;;16.50;52.60;;;;;;5066408;28;20043;-80
2023/09/10 08:02:03;;;;;;;3.70;0.90;;;16.40;52.90;;;;;;5065956;28;20475;-79
2023/09/10 08:04:31;;;;;;;3.67;1.08;;;16.40;53.10;;;;;;5063170;28;20044;-78
2023/09/10 08:07:00;;;;;;;4.05;2.10;;;16.30;52.60;;;;;;5068425;28;20081;-77
2023/09/10 08:09:29;;;;;;;4.03;2.08;;;16.30;53.00;;;;;;5069256;28;20021;-78
2023/09/10 08:11:56;;;;;;;6.57;2.08;;;16.20;53.10;;;;;;5066061;28;20032;-79
2023/09/10 08:14:25;;;;;;;9.48;3.20;;;16.20;53.60;;;;;;5065324;28;20087;-78
2023/09/10 08:16:52;;;;;;;3.90;2.25;;;16.20;53.10;;;;;;5069408;28;20031;-79
2023/09/10 08:19:19;;;;;;;3.70;1.90;;;16.20;53.30;;;;;;5068730;28;20051;-78
2023/09/10 08:21:47;;;;;;;5.80;2.10;;;16.10;53.00;;;;;;5071606;28;20545;-79
2023/09/10 08:24:14;;;;;;;4.70;1.70;;;16.00;52.90;;;;;;5067589;28;20491;-80
2023/09/10 08:26:42;;;;;;;5.35;1.50;;;16.00;52.90;;;;;;5070516;28;20100;-78
2023/09/10 08:29:09;;;;;;;3.63;1.70;;;15.90;53.20;;;;;;5069790;28;20051;-79
2023/09/10 08:31:37;;;;;;;5.03;1.85;;;15.90;53.40;;;;;;5071050;28;20082;-78
2023/09/10 08:34:04;;;;;;;5.60;2.33;;;15.80;53.50;;;;;;5068706;28;20103;-77
2023/09/10 08:36:31;;;;;;;8.77;3.72;;;15.80;54.40;;;;;;5069765;28;20028;-79
2023/09/10 08:38:59;;;;;;;7.78;3.67;;;15.70;54.60;;;;;;5067443;28;20483;-79
2023/09/10 08:41:52;;;;;;;6.97;4.10;;;15.70;55.00;;;;;;5070554;28;20803;-79
2023/09/10 08:44:22;;;;;;;5.32;3.00;;;15.70;54.80;;;;;;5067001;28;20438;-81
2023/09/10 08:46:51;;;;;;;6.65;3.47;;;15.70;55.60;;;;;;5066152;28;20170;-79
2023/09/10 08:49:21;;;;;;;6.28;3.50;;;15.70;55.10;;;;;;5065804;28;20044;-77
2023/09/10 08:51:49;;;;;;;6.07;2.65;;;15.60;54.90;;;;;;5068443;28;20113;-78
2023/09/10 08:54:17;;;;;;;9.23;5.38;;;15.60;54.90;;;;;;5066363;28;20036;-81
2023/09/10 08:56:46;;;;;;;8.25;3.95;;;15.50;55.00;;;;;;5065195;28;20426;-77
2023/09/10 08:59:14;;;;;;;12.02;4.50;;;15.40;55.30;;;;;;5067360;28;20032;-79
2023/09/10 09:01:44;;;;;;;6.30;4.18;;;15.30;55.60;;;;;;5068781;28;20379;-78
2023/09/10 09:04:14;;;;;;;5.85;3.30;;;15.30;55.80;;;;;;5066236;28;20103;-78
2023/09/10 09:06:47;;;;;;;6.95;3.45;;;15.20;56.10;;;;;;5066155;28;20651;-77
2023/09/10 09:09:16;;;;;;;4.70;2.58;;;15.10;56.30;;;;;;5064405;28;20039;-79
2023/09/10 09:11:45;;;;;;;7.15;2.97;;;15.10;56.50;;;;;;5068023;28;20399;-77
2023/09/10 09:14:13;;;;;;;7.28;3.15;;;15.00;56.80;;;;;;5067337;28;20031;-80
2023/09/10 09:16:41;;;;;;;7.72;3.90;;;14.90;57.80;;;;;;5068951;28;20016;-80
2023/09/10 09:19:12;;;;;;;8.60;3.40;;;14.90;58.30;;;;;;5067239;28;20047;-80
2023/09/10 09:21:41;;;;;;;9.05;3.20;;;14.90;58.20;;;;;;5066069;28;20086;-78
2023/09/10 09:24:12;;;;;;;19.98;8.43;;;14.90;58.00;;;;;;5066125;28;20079;-78
2023/09/10 09:26:41;;;;;;;12.15;5.45;;;14.80;57.90;;;;;;5066044;28;20020;-79
2023/09/10 09:29:09;;;;;;;14.40;5.82;;;14.80;58.30;;;;;;5067779;28;20044;-78
2023/09/10 09:31:36;;;;;;;8.52;4.10;;;14.70;58.50;;;;;;5065710;28;20028;-79
2023/09/10 09:34:07;;;;;;;8.95;3.50;;;14.70;58.60;;;;;;5066049;28;20025;-79
2023/09/10 09:36:36;;;;;;;9.95;3.75;;;14.60;58.80;;;;;;5065239;28;20048;-78
2023/09/10 09:39:07;;;;;;;9.48;5.03;;;14.50;58.90;;;;;;5068162;28;20085;-78
2023/09/10 09:41:38;;;;;;;14.45;9.25;;;14.50;59.00;;;;;;5064436;28;20025;-78
2023/09/10 09:44:05;;;;;;;18.10;11.25;;;14.50;59.30;;;;;;5062306;28;20078;-78
2023/09/10 09:46:34;;;;;;;60.28;31.52;;;14.40;59.40;;;;;;5065467;28;20028;-78
2023/09/10 09:49:02;;;;;;;286.90;151.85;;;14.30;59.70;;;;;;5067807;28;20739;-78
2023/09/10 09:51:30;;;;;;;148.30;83.47;;;14.30;59.90;;;;;;5066127;28;20040;-78
2023/09/10 09:53:57;;;;;;;79.80;44.28;;;14.20;60.30;;;;;;5066593;28;20495;-78
2023/09/10 09:56:25;;;;;;;53.45;30.00;;;14.20;60.20;;;;;;5065003;28;20036;-79
2023/09/10 09:58:56;;;;;;;58.75;36.50;;;14.20;60.70;;;;;;5068278;28;20476;-78
2023/09/10 10:01:24;;;;;;;60.35;41.30;;;14.20;60.60;;;;;;5069600;28;20074;-81
2023/09/10 10:03:52;;;;;;;67.65;48.33;;;14.20;60.70;;;;;;5069186;28;20033;-84
2023/09/10 10:06:20;;;;;;;67.45;48.70;;;14.20;61.30;;;;;;5065483;28;20024;-82
2023/09/10 10:08:51;;;;;;;38.75;27.40;;;14.20;60.90;;;;;;5069163;28;20387;-80
2023/09/10 10:11:30;;;;;;;13.55;8.00;;;14.20;60.90;;;;;;5069158;28;20016;-85
2023/09/10 10:14:01;;;;;;;14.15;7.38;;;14.10;60.80;;;;;;5067513;28;20089;-79
2023/09/10 10:16:30;;;;;;;10.18;6.00;;;14.00;61.10;;;;;;5067245;28;20012;-85
2023/09/10 10:18:58;;;;;;;8.82;4.43;;;14.00;61.30;;;;;;5067283;28;20045;-83
2023/09/10 10:21:25;;;;;;;13.43;4.65;;;13.90;61.40;;;;;;5067649;28;20728;-81
2023/09/10 10:23:56;;;;;;;7.57;3.78;;;13.90;61.60;;;;;;5070002;28;20037;-84
2023/09/10 10:26:24;;;;;;;10.48;4.82;;;13.90;61.60;;;;;;5067101;28;20017;-85
2023/09/10 10:28:52;;;;;;;6.72;3.67;;;13.90;61.70;;;;;;5069009;28;20056;-85
2023/09/10 10:31:25;;;;;;;8.48;3.55;;;13.80;61.90;;;;;;5068188;28;20372;-83
2023/09/10 10:34:26;;;;;;;7.25;3.50;;;13.80;62.30;;;;;;5069583;28;21639;-85
2023/09/10 10:37:13;;;;;;;7.28;3.80;;;13.80;62.70;;;;;;5037112;28;20033;-82
2023/09/10 10:40:10;;;;;;;6.95;3.63;;;13.80;62.90;;;;;;5068350;28;20293;-80
2023/09/10 10:42:55;;;;;;;;;;;13.80;62.90;;;;;;5070686;28;20042;-81
2023/09/10 10:45:27;;;;;;;7.32;2.70;;;13.80;62.70;;;;;;5066986;28;19919;-81
2023/09/10 10:47:57;;;;;;;5.30;2.90;;;13.70;62.90;;;;;;5070222;28;20139;-86
2023/09/10 10:50:27;;;;;;;6.85;3.35;;;13.70;63.30;;;;;;5068534;28;20625;-81
2023/09/10 10:53:02;;;;;;;6.43;2.78;;;13.70;63.40;;;;;;5068556;28;20101;-84
2023/09/10 10:55:32;;;;;;;6.85;2.80;;;13.70;63.40;;;;;;5066399;28;20519;-83
2023/09/10 10:58:00;;;;;;;5.25;2.58;;;13.80;63.50;;;;;;5068072;28;20589;-84
2023/09/10 11:00:29;;;;;;;6.60;2.47;;;13.80;63.60;;;;;;5066682;28;20013;-84
2023/09/10 11:03:13;;;;;;;11.25;3.17;;;13.70;63.40;;;;;;5068362;28;20034;-86
2023/09/10 11:06:04;;;;;;;5.95;2.20;;;13.70;63.20;;;;;;5065065;28;20127;-82
2023/09/10 11:08:49;;;;;;;6.70;2.40;;;13.70;63.20;;;;;;5068200;28;20048;-86
2023/09/10 11:11:34;;;;;;;5.70;2.30;;;13.70;63.80;;;;;;5067961;28;20503;-84
2023/09/10 11:14:05;;;;;;;6.32;2.53;;;13.70;63.70;;;;;;5066923;28;20037;-80
2023/09/10 11:16:33;;;;;;;5.28;2.53;;;13.70;63.70;;;;;;5067077;28;20089;-87
2023/09/10 11:19:03;;;;;;;6.88;3.25;;;13.70;63.90;;;;;;5068609;28;20070;-83
2023/09/10 11:21:54;;;;;;;7.45;3.10;;;13.60;63.90;;;;;;5067702;28;20396;-82
2023/09/10 11:24:22;;;;;;;7.70;3.60;;;13.60;64.20;;;;;;5064608;28;20715;-82
2023/09/10 11:26:49;;;;;;;8.63;3.10;;;13.60;64.20;;;;;;5069289;28;20016;-77
2023/09/10 11:29:21;;;;;;;7.63;3.38;;;13.60;64.00;;;;;;5067282;28;20052;-81
2023/09/10 11:31:52;;;;;;;7.18;3.72;;;13.70;64.50;;;;;;5067263;28;20103;-85
2023/09/10 11:34:27;;;;;;;7.32;3.72;;;13.70;64.10;;;;;;5065587;28;20036;-80
2023/09/10 11:37:00;;;;;;;7.85;3.88;;;13.60;64.40;;;;;;5068332;28;20100;-79
2023/09/10 11:39:29;;;;;;;13.38;4.78;;;13.60;63.80;;;;;;5069016;28;20494;-79
2023/09/10 11:41:59;;;;;;;12.07;5.60;;;13.60;63.90;;;;;;5073708;28;20035;-80
2023/09/10 11:44:28;;;;;;;9.90;5.38;;;13.60;63.90;;;;;;5073382;28;20025;-82
2023/09/10 11:46:56;;;;;;;11.60;5.72;;;13.50;63.90;;;;;;5069040;28;20089;-79
2023/09/10 11:49:24;;;;;;;10.20;4.88;;;13.50;63.90;;;;;;5067101;28;20032;-77
2023/09/10 11:51:55;;;;;;;13.30;4.72;;;13.50;64.10;;;;;;5067640;28;20082;-82
2023/09/10 11:54:23;;;;;;;9.23;4.00;;;13.40;64.10;;;;;;5067354;28;20108;-79
2023/09/10 11:56:53;;;;;;;11.32;4.28;;;13.40;64.40;;;;;;5067300;28;20101;-79
2023/09/10 11:59:23;;;;;;;8.55;3.92;;;13.40;64.30;;;;;;5067440;28;20113;-79
2023/09/10 12:01:54;;;;;;;9.10;4.22;;;13.30;64.20;;;;;;5065411;28;20494;-76
2023/09/10 12:04:29;;;;;;;5.82;3.63;;;13.30;64.50;;;;;;5067479;28;20502;-77
2023/09/10 12:06:56;;;;;;;8.52;4.07;;;13.30;64.70;;;;;;5067367;28;20467;-80
2023/09/10 12:09:24;;;;;;;6.45;3.70;;;13.30;64.60;;;;;;5067815;28;20048;-78
2023/09/10 12:11:54;;;;;;;5.97;3.67;;;13.30;64.60;;;;;;5065588;28;20379;-77
2023/09/10 12:14:23;;;;;;;6.43;3.30;;;13.30;64.70;;;;;;5067307;28;20077;-77
2023/09/10 12:16:50;;;;;;;7.38;3.88;;;13.30;64.80;;;;;;5067176;28;20032;-81
2023/09/10 12:19:18;;;;;;;7.68;3.38;;;13.20;65.00;;;;;;5065739;28;20028;-82
2023/09/10 12:21:45;;;;;;;7.13;3.15;;;13.20;65.50;;;;;;5064679;28;20426;-80
2023/09/10 12:24:13;;;;;;;7.80;3.00;;;13.20;65.50;;;;;;5066844;28;20023;-85
2023/09/10 12:26:40;;;;;;;5.90;2.75;;;13.20;65.60;;;;;;5066834;28;20032;-79
2023/09/10 12:29:08;;;;;;;8.52;3.08;;;13.20;65.60;;;;;;5066606;28;20055;-80
2023/09/10 12:31:35;;;;;;;6.82;3.53;;;13.10;65.60;;;;;;5066427;28;20025;-85
2023/09/10 12:34:03;;;;;;;8.15;3.17;;;13.10;65.90;;;;;;5067132;28;20020;-79
2023/09/10 12:36:31;;;;;;;4.90;2.63;;;13.10;66.10;;;;;;5068385;28;20021;-79
2023/09/10 12:39:00;;;;;;;5.32;2.85;;;13.00;66.30;;;;;;5066217;28;20387;-77
2023/09/10 12:41:28;;;;;;;4.45;2.95;;;12.90;66.40;;;;;;5065737;28;20372;-78
2023/09/10 12:43:56;;;;;;;10.40;3.58;;;12.90;66.60;;;;;;5065546;28;20034;-81
2023/09/10 12:46:24;;;;;;;5.68;2.97;;;12.90;66.60;;;;;;5067867;28;20032;-87
2023/09/10 12:48:53;;;;;;;6.40;3.25;;;12.90;66.80;;;;;;5069423;28;20483;-91
2023/09/10 12:51:20;;;;;;;8.57;3.17;;;12.80;66.90;;;;;;5067089;28;20098;-81
2023/09/10 12:53:48;;;;;;;8.52;3.40;;;12.80;67.00;;;;;;5066378;28;20101;-82
2023/09/10 12:56:15;;;;;;;4.50;2.78;;;12.80;67.40;;;;;;5066870;28;20020;-79